Time;durP1;ratioP1;P1;durP2;ratioP2;P2;SDS_P1;SDS_P2;PMS_P1;PMS_P2;Temp;Humidity;BMP_temperature;BMP_pressure;BME280_temperature;BME280_humidity;BME280_pressure;Samples;Min_cycle;Max_cycle;Signal;HPM_P1;HPM_P2
2023/03/18 00:00:27;;;;;;;8.87;7.80;;;;;;;2.60;100.00;95920.16;5091412;28;20428;-74
2023/03/18 00:02:53;;;;;;;11.20;8.00;;;;;;;2.50;100.00;95877.81;5075973;28;20452;-75
2023/03/18 00:05:20;;;;;;;13.40;9.20;;;;;;;2.52;100.00;95888.72;5054669;28;20489;-75
2023/03/18 00:07:49;;;;;;;12.97;8.93;;;;;;;2.34;100.00;95878.03;5054514;28;20836;-75
2023/03/18 00:10:16;;;;;;;15.20;9.17;;;;;;;2.49;100.00;95895.28;5071070;28;20537;-74
2023/03/18 00:12:43;;;;;;;14.67;9.47;;;;;;;2.75;100.00;95910.53;5070862;28;20433;-74
2023/03/18 00:15:13;;;;;;;11.07;8.10;;;;;;;3.03;100.00;95921.81;5070979;28;20467;-74
2023/03/18 00:17:40;;;;;;;10.33;9.17;;;;;;;2.66;100.00;95898.16;5070062;28;20428;-74
2023/03/18 00:20:08;;;;;;;14.60;11.67;;;;;;;2.68;100.00;95931.81;5080043;28;20449;-75
2023/03/18 00:22:36;;;;;;;20.00;13.23;;;;;;;2.69;100.00;95930.75;5092273;28;20469;-74
2023/03/18 00:25:06;;;;;;;16.00;10.80;;;;;;;2.70;100.00;95934.91;5080443;28;20435;-74
2023/03/18 00:27:34;;;;;;;11.40;8.73;;;;;;;2.66;100.00;95934.69;5070776;28;20428;-75
2023/03/18 00:30:03;;;;;;;12.57;7.87;;;;;;;2.60;100.00;95933.22;5070577;28;20467;-75
2023/03/18 00:32:31;;;;;;;10.40;7.63;;;;;;;2.30;100.00;95899.78;5054071;28;20436;-75
2023/03/18 00:34:58;;;;;;;8.60;7.80;;;;;;;2.48;100.00;95932.09;5067626;28;20449;-74
2023/03/18 00:37:32;;;;;;;11.30;7.97;;;;;;;2.15;100.00;95905.97;5090849;28;20782;-74
2023/03/18 00:40:06;;;;;;;9.60;7.17;;;;;;;2.04;100.00;95896.75;5091087;28;20445;-74
2023/03/18 00:42:38;;;;;;;13.67;8.67;;;;;;;2.31;100.00;95946.44;5074070;28;20996;-74
2023/03/18 00:45:07;;;;;;;37.70;9.43;;;;;;;2.14;100.00;95953.97;5090787;28;20463;-74
2023/03/18 00:47:34;;;;;;;9.87;8.60;;;;;;;1.95;100.00;95927.09;5059911;28;20889;-74
2023/03/18 00:50:02;;;;;;;13.37;9.37;;;;;;;2.08;100.00;95950.66;5070348;28;20452;-74
2023/03/18 00:52:29;;;;;;;15.93;8.70;;;;;;;1.89;100.00;95920.41;5070540;28;20436;-74
2023/03/18 00:54:58;;;;;;;12.03;8.90;;;;;;;1.94;100.00;95938.59;5070448;28;20440;-74
2023/03/18 00:57:30;;;;;;;10.10;8.23;;;;;;;1.84;100.00;95925.69;5070467;28;20956;-74
2023/03/18 00:59:58;;;;;;;14.03;9.77;;;;;;;1.78;100.00;95938.78;5050374;28;20779;-74
2023/03/18 01:02:27;;;;;;;14.00;10.27;;;;;;;2.04;100.00;95960.09;5062821;28;20420;-74
2023/03/18 01:04:54;;;;;;;8.27;6.70;;;;;;;1.86;100.00;95932.16;5070240;28;20475;-74
2023/03/18 01:07:22;;;;;;;12.53;8.30;;;;;;;1.89;100.00;95933.44;5066962;28;20435;-74
2023/03/18 01:09:49;;;;;;;10.40;8.47;;;;;;;1.55;100.00;95899.72;5056905;28;20527;-74
2023/03/18 01:12:17;;;;;;;10.33;8.30;;;;;;;1.59;100.00;95919.72;5070200;28;20821;-74
2023/03/18 01:14:43;;;;;;;13.93;8.27;;;;;;;1.54;100.00;95906.75;5056997;28;20499;-74
2023/03/18 01:17:10;;;;;;;9.63;7.07;;;;;;;1.64;100.00;95919.66;5071759;28;20420;-75
2023/03/18 01:19:37;;;;;;;11.90;7.90;;;;;;;1.40;100.00;95885.03;5081622;28;20436;-74
2023/03/18 01:22:04;;;;;;;11.77;7.10;;;;;;;1.48;100.00;95932.09;5071495;28;20435;-74
2023/03/18 01:24:37;;;;;;;10.37;5.23;;;;;;;1.22;100.00;95923.00;5070141;28;20885;-74
2023/03/18 01:27:05;;;;;;;11.13;7.03;;;;;;;1.58;100.00;95935.63;5083670;28;20834;-74
2023/03/18 01:29:32;;;;;;;11.50;6.77;;;;;;;1.68;100.00;95928.47;5073123;28;20535;-74
2023/03/18 01:32:01;;;;;;;9.63;7.17;;;;;;;1.38;100.00;95906.16;5076189;28;20464;-74
2023/03/18 01:34:28;;;;;;;7.60;6.90;;;;;;;1.48;100.00;95936.53;5077370;28;20466;-74
2023/03/18 01:36:56;;;;;;;9.57;7.20;;;;;;;1.26;100.00;95890.16;5079518;28;20523;-74
2023/03/18 01:39:25;;;;;;;12.53;9.27;;;;;;;1.29;100.00;95918.22;5074026;28;20440;-74
2023/03/18 01:41:52;;;;;;;12.70;7.10;;;;;;;1.46;100.00;95934.19;5073770;28;20809;-74
2023/03/18 01:44:27;;;;;;;10.90;8.07;;;;;;;1.36;100.00;95917.91;5074057;28;20875;-74
2023/03/18 01:46:55;;;;;;;10.73;7.10;;;;;;;1.46;100.00;95926.38;5092499;28;20467;-74
2023/03/18 01:49:29;;;;;;;9.90;7.70;;;;;;;1.29;100.00;95912.25;5093997;28;20443;-74
2023/03/18 01:52:02;;;;;;;12.00;7.10;;;;;;;1.37;100.00;95945.50;5070763;28;20828;-74
2023/03/18 01:54:33;;;;;;;11.00;7.10;;;;;;;1.17;100.00;95923.03;5059986;28;20453;-74
2023/03/18 01:57:02;;;;;;;10.00;7.33;;;;;;;1.10;100.00;95915.56;5057107;28;20436;-74
2023/03/18 01:59:32;;;;;;;8.40;6.80;;;;;;;1.16;100.00;95911.06;5073462;28;20443;-74
2023/03/18 02:02:05;;;;;;;7.50;6.10;;;;;;;1.38;100.00;95942.63;5057009;28;20439;-74
2023/03/18 02:04:42;;;;;;;10.43;5.70;;;;;;;1.03;100.00;95907.28;5057077;28;20562;-74
2023/03/18 02:07:16;;;;;;;8.00;5.70;;;;;;;1.26;100.00;95936.25;5073499;28;20446;-74
2023/03/18 02:09:44;;;;;;;6.50;5.80;;;;;;;1.23;100.00;95947.97;5092306;28;20950;-74
2023/03/18 02:12:14;;;;;;;5.80;5.30;;;;;;;0.95;100.00;95917.53;5080812;28;20448;-74
2023/03/18 02:14:41;;;;;;;8.67;6.20;;;;;;;1.08;100.00;95935.91;5073186;28;20505;-74
2023/03/18 02:17:15;;;;;;;8.03;5.83;;;;;;;0.97;100.00;95921.41;5073230;28;20428;-74
2023/03/18 02:19:55;;;;;;;7.70;5.90;;;;;;;0.92;100.00;95938.88;5062704;28;20454;-74
2023/03/18 02:22:30;;;;;;;7.10;5.40;;;;;;;1.02;100.00;95942.19;5072798;28;20432;-74
2023/03/18 02:25:11;;;;;;;8.10;6.03;;;;;;;1.01;100.00;95947.66;5093398;28;20442;-74
2023/03/18 02:27:49;;;;;;;6.17;5.10;;;;;;;0.88;100.00;95943.88;5057230;28;20443;-74
2023/03/18 02:30:22;;;;;;;10.53;5.03;;;;;;;0.75;100.00;95947.88;5087240;28;20442;-74
2023/03/18 02:32:52;;;;;;;6.80;5.43;;;;;;;0.85;100.00;95934.78;5084143;28;20521;-74
2023/03/18 02:35:19;;;;;;;9.90;6.27;;;;;;;0.72;100.00;95909.41;5075495;28;20442;-74
2023/03/18 02:37:47;;;;;;;8.43;5.37;;;;;;;1.19;100.00;95955.56;5076553;28;20443;-74
2023/03/18 02:40:35;;;;;;;6.97;5.60;;;;;;;1.11;100.00;95963.97;5075084;28;20480;-74
2023/03/18 02:43:15;;;;;;;6.93;6.23;;;;;;;1.08;100.00;95964.53;5086621;28;20511;-74
2023/03/18 02:46:05;;;;;;;7.47;5.60;;;;;;;1.19;100.00;95965.97;5056321;28;20924;-74
2023/03/18 02:48:39;;;;;;;7.40;5.23;;;;;;;1.02;100.00;95965.59;5074015;28;20428;-74
2023/03/18 02:51:07;;;;;;;9.57;6.30;;;;;;;1.10;100.00;95972.06;5072670;28;20915;-74
2023/03/18 02:53:35;;;;;;;9.43;5.93;;;;;;;0.74;100.00;95945.56;5072456;28;20460;-74
2023/03/18 02:56:03;;;;;;;7.67;6.93;;;;;;;0.77;100.00;95947.59;5072505;28;20527;-74
2023/03/18 02:58:31;;;;;;;6.03;5.33;;;;;;;0.98;100.00;95969.03;5072396;28;20805;-74
2023/03/18 03:01:00;;;;;;;8.03;5.63;;;;;;;0.94;100.00;95978.44;5056042;28;20949;-74
2023/03/18 03:03:27;;;;;;;9.87;6.37;;;;;;;0.77;100.00;95971.78;5055826;28;20821;-73
2023/03/18 03:05:55;;;;;;;7.53;6.70;;;;;;;0.68;100.00;95959.66;5052890;28;20441;-74
2023/03/18 03:08:23;;;;;;;7.07;4.97;;;;;;;0.71;100.00;95982.53;5055909;28;20436;-73
2023/03/18 03:10:51;;;;;;;11.43;6.47;;;;;;;0.69;100.00;95988.00;5055598;28;20488;-74
2023/03/18 03:13:19;;;;;;;8.53;5.77;;;;;;;0.42;100.00;95954.63;5072059;28;20538;-73
2023/03/18 03:15:48;;;;;;;9.47;6.33;;;;;;;0.64;100.00;95995.81;5072097;28;20428;-73
2023/03/18 03:18:16;;;;;;;10.70;7.27;;;;;;;0.55;100.00;95987.84;5072112;28;20461;-73
2023/03/18 03:20:43;;;;;;;8.10;6.50;;;;;;;0.28;100.00;95967.47;5069912;28;20860;-73
2023/03/18 03:23:13;;;;;;;6.63;5.90;;;;;;;0.36;100.00;95989.50;5081457;28;20498;-73
2023/03/18 03:25:40;;;;;;;6.53;5.30;;;;;;;0.18;100.00;95985.72;5075369;28;21002;-73
2023/03/18 03:28:07;;;;;;;6.90;5.70;;;;;;;-0.27;100.00;95950.31;5093419;28;20551;-74
2023/03/18 03:30:35;;;;;;;6.90;5.40;;;;;;;0.06;100.00;95998.25;5072119;28;20435;-74
2023/03/18 03:33:03;;;;;;;7.07;6.47;;;;;;;0.18;100.00;95993.50;5055189;28;20456;-74
2023/03/18 03:35:30;;;;;;;6.50;5.90;;;;;;;0.00;100.00;95960.34;5072953;28;20792;-73
2023/03/18 03:37:57;;;;;;;8.47;6.73;;;;;;;0.32;100.00;95993.69;5071763;28;20798;-74
2023/03/18 03:40:24;;;;;;;8.57;6.73;;;;;;;0.31;100.00;95999.94;5072904;28;20479;-74
2023/03/18 03:42:51;;;;;;;7.83;6.57;;;;;;;0.35;100.00;95993.16;5071479;28;20499;-75
2023/03/18 03:45:18;;;;;;;5.83;4.53;;;;;;;0.28;100.00;95983.06;5071509;28;20452;-75
2023/03/18 03:47:46;;;;;;;13.87;6.77;;;;;;;0.40;100.00;96002.72;5065893;28;20521;-75
2023/03/18 03:50:15;;;;;;;5.80;5.10;;;;;;;0.48;100.00;95996.97;5087161;28;20490;-75
2023/03/18 03:52:42;;;;;;;6.70;5.97;;;;;;;0.25;100.00;95970.56;5071234;28;20997;-75
2023/03/18 03:55:12;;;;;;;7.60;6.30;;;;;;;0.05;100.00;95970.69;5054820;28;20451;-75
2023/03/18 03:57:39;;;;;;;8.03;7.00;;;;;;;0.08;100.00;95969.38;5055065;28;20439;-75
2023/03/18 04:00:13;;;;;;;7.53;6.93;;;;;;;0.31;100.00;96012.94;5072702;28;20428;-75
2023/03/18 04:02:42;;;;;;;9.10;6.57;;;;;;;0.09;100.00;95979.50;5071765;28;20427;-75
2023/03/18 04:05:12;;;;;;;9.93;8.70;;;;;;;0.03;100.00;95972.03;5071183;28;20945;-75
2023/03/18 04:07:40;;;;;;;10.10;8.90;;;;;;;0.25;100.00;96006.97;5071079;28;20805;-74
2023/03/18 04:10:10;;;;;;;8.23;7.40;;;;;;;0.18;100.00;96010.91;5054726;28;20534;-74
2023/03/18 04:12:38;;;;;;;7.80;7.10;;;;;;;0.04;100.00;95987.34;5054505;28;20468;-75
2023/03/18 04:15:08;;;;;;;8.23;7.43;;;;;;;0.34;100.00;96012.41;5071303;28;20436;-75
2023/03/18 04:17:35;;;;;;;7.80;7.07;;;;;;;0.39;100.00;96011.56;5054678;28;20444;-76
2023/03/18 04:20:04;;;;;;;7.37;6.63;;;;;;;0.22;100.00;95980.75;5069395;28;20472;-75
2023/03/18 04:22:32;;;;;;;10.07;6.87;;;;;;;0.34;100.00;96004.59;5071119;28;20430;-75
2023/03/18 04:25:01;;;;;;;6.83;6.13;;;;;;;0.24;100.00;95999.44;5055067;28;20550;-75
2023/03/18 04:27:28;;;;;;;7.57;6.77;;;;;;;0.26;100.00;95999.94;5054509;28;20494;-75
2023/03/18 04:29:58;;;;;;;6.67;6.07;;;;;;;0.13;100.00;95997.94;5071095;28;20487;-75
2023/03/18 04:32:33;;;;;;;6.57;5.37;;;;;;;0.19;100.00;95968.28;5055669;28;20843;-75
2023/03/18 04:35:02;;;;;;;9.20;5.60;;;;;;;0.39;100.00;96012.34;5070889;28;20958;-75
2023/03/18 04:37:29;;;;;;;7.30;5.40;;;;;;;-0.04;100.00;95957.47;5070909;28;20463;-75
2023/03/18 04:39:58;;;;;;;7.23;5.77;;;;;;;0.23;100.00;95974.50;5070788;28;20957;-75
2023/03/18 04:42:25;;;;;;;8.93;5.73;;;;;;;0.27;100.00;95981.50;5070984;28;20518;-75
2023/03/18 04:44:52;;;;;;;9.77;5.40;;;;;;;0.32;100.00;95991.09;5054304;28;20452;-75
2023/03/18 04:47:19;;;;;;;7.10;6.23;;;;;;;0.31;100.00;95991.38;5070881;28;20862;-74
2023/03/18 04:49:48;;;;;;;6.90;5.83;;;;;;;0.34;100.00;95981.19;5070472;28;20486;-74
2023/03/18 04:52:16;;;;;;;9.50;6.53;;;;;;;0.58;100.00;96020.31;5078933;28;20459;-74
2023/03/18 04:54:45;;;;;;;7.70;6.47;;;;;;;0.48;100.00;96008.16;5074179;28;20546;-74
2023/03/18 04:57:12;;;;;;;7.50;6.50;;;;;;;0.45;100.00;96008.69;5081603;28;20479;-74
2023/03/18 04:59:46;;;;;;;6.23;5.40;;;;;;;0.06;100.00;95976.69;5070434;28;20447;-74
2023/03/18 05:02:14;;;;;;;8.43;5.17;;;;;;;0.22;100.00;95981.50;5080718;28;20434;-74
2023/03/18 05:04:41;;;;;;;8.60;6.30;;;;;;;0.43;100.00;96010.78;5072512;28;20531;-73
2023/03/18 05:07:14;;;;;;;11.03;8.53;;;;;;;0.18;100.00;95988.31;5053860;28;20971;-74
2023/03/18 05:09:46;;;;;;;11.47;6.97;;;;;;;0.21;100.00;96002.59;5070354;28;20446;-74
2023/03/18 05:12:15;;;;;;;8.80;7.00;;;;;;;0.37;100.00;96026.69;5053803;28;21015;-74
2023/03/18 05:14:42;;;;;;;9.20;6.27;;;;;;;0.15;100.00;95998.47;5070226;28;20972;-74
2023/03/18 05:17:16;;;;;;;8.57;6.23;;;;;;;0.18;100.00;95992.72;5070353;28;20444;-74
2023/03/18 05:19:52;;;;;;;8.90;6.60;;;;;;;0.26;100.00;96018.91;5053408;28;20518;-74
2023/03/18 05:22:21;;;;;;;9.13;6.40;;;;;;;0.33;100.00;96018.63;5068934;28;20541;-74
2023/03/18 05:24:54;;;;;;;9.87;6.87;;;;;;;0.06;100.00;95980.06;5063934;28;21034;-74
2023/03/18 05:27:23;;;;;;;11.63;7.43;;;;;;;0.28;100.00;96014.25;5070100;28;20432;-74
2023/03/18 05:29:57;;;;;;;7.40;6.67;;;;;;;0.34;100.00;96017.59;5054706;28;20538;-74
2023/03/18 05:32:35;;;;;;;10.60;6.23;;;;;;;0.37;100.00;96031.88;5070058;28;20467;-74
2023/03/18 05:35:04;;;;;;;11.80;6.30;;;;;;;0.19;100.00;95984.66;5069955;28;20471;-74
2023/03/18 05:37:38;;;;;;;6.27;5.57;;;;;;;0.10;100.00;95981.06;5078476;28;20939;-74
2023/03/18 05:40:08;;;;;;;10.83;6.67;;;;;;;0.27;100.00;96015.31;5074892;28;20542;-74
2023/03/18 05:42:37;;;;;;;16.87;11.90;;;;;;;0.51;100.00;96032.84;5053439;28;20442;-74
2023/03/18 05:45:21;;;;;;;11.00;9.00;;;;;;;0.48;100.00;96028.19;5075178;28;20533;-74
2023/03/18 05:47:53;;;;;;;12.77;10.97;;;;;;;0.25;100.00;96008.78;5090247;28;20462;-74
2023/03/18 05:50:46;;;;;;;12.70;10.17;;;;;;;-0.02;100.00;95968.38;5070434;28;20440;-74
2023/03/18 05:53:17;;;;;;;13.83;11.77;;;;;;;0.24;100.00;96002.03;5069064;28;20517;-74
2023/03/18 05:55:47;;;;;;;13.67;11.07;;;;;;;0.14;100.00;95991.72;5053761;28;20447;-74
2023/03/18 05:58:15;;;;;;;18.77;10.80;;;;;;;0.27;100.00;96030.13;5069853;28;20536;-74
2023/03/18 06:00:43;;;;;;;13.13;10.47;;;;;;;0.09;100.00;95995.09;5053568;28;20448;-74
2023/03/18 06:03:10;;;;;;;10.57;9.50;;;;;;;0.26;100.00;96013.72;5039565;28;21002;-74
2023/03/18 06:05:37;;;;;;;12.77;9.93;;;;;;;0.38;100.00;96020.44;5053283;28;21001;-74
2023/03/18 06:08:04;;;;;;;12.10;10.37;;;;;;;0.36;100.00;95992.09;5088786;28;20488;-74
2023/03/18 06:10:33;;;;;;;13.43;10.70;;;;;;;0.32;100.00;95987.72;5077103;28;20468;-74
2023/03/18 06:12:59;;;;;;;10.30;9.23;;;;;;;0.22;100.00;96002.31;5069418;28;20479;-74
2023/03/18 06:15:26;;;;;;;15.97;9.53;;;;;;;0.48;100.00;96015.19;5083824;28;20455;-74
2023/03/18 06:17:53;;;;;;;12.37;8.77;;;;;;;0.41;100.00;96005.09;5070604;28;20432;-74
2023/03/18 06:20:20;;;;;;;28.83;10.00;;;;;;;0.61;100.00;96024.97;5084678;28;20442;-74
2023/03/18 06:22:50;;;;;;;9.87;8.23;;;;;;;0.77;100.00;96034.22;5056588;28;20436;-74
2023/03/18 06:25:19;;;;;;;8.50;7.23;;;;;;;0.71;100.00;96009.31;5086886;28;20437;-74
2023/03/18 06:27:47;;;;;;;11.50;9.50;;;;;;;0.72;100.00;96015.28;5093279;28;20432;-74
2023/03/18 06:30:16;;;;;;;10.87;8.90;;;;;;;0.86;100.00;96019.59;5078862;28;20501;-74
2023/03/18 06:32:44;;;;;;;9.50;8.60;;;;;;;1.14;100.00;96044.13;5072791;28;20994;-74
2023/03/18 06:35:12;;;;;;;10.70;8.30;;;;;;;1.23;100.00;96046.16;5072787;28;20450;-74
2023/03/18 06:37:39;;;;;;;10.23;8.23;;;;;;;1.38;100.00;96046.00;5072927;28;20444;-74
2023/03/18 06:40:08;;;;;;;10.40;8.77;;;;;;;1.55;100.00;96046.38;5072797;28;20480;-74
2023/03/18 06:42:35;;;;;;;9.33;8.43;;;;;;;1.25;100.00;96007.59;5072842;28;20789;-74
2023/03/18 06:45:07;;;;;;;9.13;8.10;;;;;;;1.37;100.00;96023.63;5056961;28;20819;-74
2023/03/18 06:47:59;;;;;;;12.77;8.80;;;;;;;1.55;100.00;96027.34;5070076;28;20530;-74
2023/03/18 06:50:26;;;;;;;8.43;7.53;;;;;;;1.62;100.00;96038.25;5093006;28;20435;-74
2023/03/18 06:52:53;;;;;;;9.07;7.47;;;;;;;1.52;100.00;96007.06;5078765;28;20472;-74
2023/03/18 06:55:26;;;;;;;11.33;8.40;;;;;;;1.47;100.00;96016.50;5080943;28;20470;-74
2023/03/18 06:57:53;;;;;;;9.70;6.90;;;;;;;1.78;100.00;96039.63;5092663;28;20443;-74
2023/03/18 07:00:25;;;;;;;8.60;7.57;;;;;;;1.73;100.00;96035.22;5067819;28;20444;-74
2023/03/18 07:02:53;;;;;;;8.70;7.37;;;;;;;1.98;100.00;96065.47;5072264;28;20559;-74
2023/03/18 07:05:25;;;;;;;12.67;7.40;;;;;;;1.82;100.00;96029.44;5082213;28;20545;-74
2023/03/18 07:07:53;;;;;;;9.97;6.67;;;;;;;2.01;100.00;96070.16;5092465;28;20548;-74
2023/03/18 07:10:23;;;;;;;8.00;6.50;;;;;;;2.10;100.00;96072.13;5075735;28;20492;-74
2023/03/18 07:12:52;;;;;;;9.97;6.80;;;;;;;2.21;100.00;96063.91;5057588;28;20496;-74
2023/03/18 07:15:21;;;;;;;8.67;6.30;;;;;;;2.13;100.00;96056.69;5072364;28;20420;-74
2023/03/18 07:17:51;;;;;;;8.23;7.00;;;;;;;2.29;100.00;96055.47;5072070;28;20438;-74
2023/03/18 07:20:19;;;;;;;10.63;6.53;;;;;;;2.27;100.00;96048.97;5071939;28;20943;-74
2023/03/18 07:22:48;;;;;;;10.40;7.43;;;;;;;2.43;100.00;96078.28;5061868;28;20918;-74
2023/03/18 07:25:15;;;;;;;7.90;6.77;;;;;;;2.32;100.00;96051.53;5092126;28;20443;-74
2023/03/18 07:27:42;;;;;;;7.33;6.60;;;;;;;2.48;100.00;96073.75;5084223;28;20547;-74
2023/03/18 07:30:09;;;;;;;10.00;7.13;;;;;;;2.67;100.00;96081.59;5072533;28;20502;-74
2023/03/18 07:32:37;;;;;;;10.90;8.80;;;;;;;2.74;100.00;96068.22;5091719;28;20554;-74
2023/03/18 07:35:05;;;;;;;11.43;8.03;;;;;;;3.08;100.00;96083.66;5077398;28;20470;-74
2023/03/18 07:37:32;;;;;;;8.17;7.37;;;;;;;3.23;100.00;96097.28;5051894;28;20488;-74
2023/03/18 07:39:59;;;;;;;11.43;7.40;;;;;;;3.33;100.00;96096.31;5071752;28;20428;-74
2023/03/18 07:42:25;;;;;;;15.67;8.30;;;;;;;3.31;100.00;96071.53;5071659;28;20436;-74
2023/03/18 07:44:52;;;;;;;9.73;8.73;;;;;;;3.54;100.00;96083.72;5071651;28;20444;-74
2023/03/18 07:47:19;;;;;;;8.03;7.23;;;;;;;3.73;100.00;96091.50;5063071;28;20439;-74
2023/03/18 07:49:46;;;;;;;13.37;6.90;;;;;;;3.85;100.00;96102.25;5078081;28;20474;-74
2023/03/18 07:52:13;;;;;;;10.77;7.37;;;;;;;4.04;100.00;96115.28;5071431;28;20502;-74
2023/03/18 07:54:40;;;;;;;13.83;6.90;;;;;;;3.99;100.00;96087.38;5069665;28;20520;-74
2023/03/18 07:57:07;;;;;;;11.60;8.63;;;;;;;4.06;100.00;96100.84;5092989;28;20423;-74
2023/03/18 07:59:35;;;;;;;17.03;7.27;;;;;;;4.38;100.00;96120.91;5089832;28;20443;-74
2023/03/18 08:02:03;;;;;;;7.67;6.97;;;;;;;4.32;100.00;96127.31;5071332;28;20494;-74
2023/03/18 08:04:31;;;;;;;10.43;7.07;;;;;;;4.37;100.00;96110.75;5074817;28;20494;-74
2023/03/18 08:06:57;;;;;;;9.80;6.60;;;;;;;4.62;100.00;96123.34;5082194;28;20523;-74
2023/03/18 08:09:26;;;;;;;9.30;6.20;;;;;;;4.80;100.00;96116.41;5071164;28;21034;-74
2023/03/18 08:11:53;;;;;;;6.97;6.00;;;;;;;5.04;100.00;96129.28;5054549;28;20436;-74
2023/03/18 08:14:23;;;;;;;9.33;7.33;;;;;;;4.86;100.00;96140.66;5070933;28;20558;-74
2023/03/18 08:16:49;;;;;;;15.03;5.80;;;;;;;4.73;100.00;96108.97;5054538;28;20482;-74
2023/03/18 08:19:16;;;;;;;10.97;7.50;;;;;;;5.09;100.00;96150.13;5069256;28;20476;-74
2023/03/18 08:21:43;;;;;;;16.30;8.63;;;;;;;4.96;100.00;96125.53;5051163;28;20536;-74
2023/03/18 08:24:10;;;;;;;10.53;8.70;;;;;;;4.97;100.00;96147.25;5074139;28;20451;-74
2023/03/18 08:26:37;;;;;;;11.03;8.23;;;;;;;4.56;100.00;96066.91;5063162;28;20440;-74
2023/03/18 08:29:04;;;;;;;11.63;7.13;;;;;;;5.03;100.00;96136.34;5075773;28;20538;-74
2023/03/18 08:31:31;;;;;;;11.33;7.67;;;;;;;5.14;100.00;96152.63;5092418;28;20939;-74
2023/03/18 08:33:58;;;;;;;10.07;7.27;;;;;;;5.12;100.00;96139.06;5069117;28;20486;-74
2023/03/18 08:36:26;;;;;;;7.87;7.00;;;;;;;5.35;100.00;96147.75;5070670;28;20456;-74
2023/03/18 08:38:53;;;;;;;6.80;6.07;;;;;;;5.43;100.00;96154.09;5053369;28;20531;-74
2023/03/18 08:41:20;;;;;;;8.07;7.00;;;;;;;5.29;100.00;96125.31;5083063;28;20920;-74
2023/03/18 08:43:47;;;;;;;8.40;7.20;;;;;;;5.67;100.00;96148.56;5055036;28;20551;-74
2023/03/18 08:46:14;;;;;;;8.70;7.30;;;;;;;5.62;100.00;96134.53;5070771;28;20894;-74
2023/03/18 08:48:40;;;;;;;9.03;7.07;;;;;;;5.78;100.00;96126.28;5071898;28;20454;-73
2023/03/18 08:51:08;;;;;;;7.10;5.90;;;;;;;5.69;100.00;96128.84;5070742;28;20443;-75
2023/03/18 08:53:35;;;;;;;9.30;6.83;;;;;;;5.77;100.00;96143.09;5070204;28;20522;-75
2023/03/18 08:56:04;;;;;;;9.40;6.87;;;;;;;5.90;100.00;96119.44;5085349;28;20456;-75
2023/03/18 08:58:31;;;;;;;8.03;6.63;;;;;;;5.99;100.00;96116.84;5063561;28;20441;-74
2023/03/18 09:00:58;;;;;;;9.27;6.30;;;;;;;6.13;100.00;96143.78;5070538;28;20431;-74
2023/03/18 09:03:25;;;;;;;10.57;6.40;;;;;;;6.16;100.00;96116.16;5070414;28;20491;-74
2023/03/18 09:05:52;;;;;;;8.70;7.17;;;;;;;6.08;100.00;96111.63;5070465;28;20432;-74
2023/03/18 09:08:20;;;;;;;6.43;5.40;;;;;;;6.37;100.00;96142.63;5079146;28;20424;-74
2023/03/18 09:10:51;;;;;;;11.30;6.63;;;;;;;6.35;100.00;96139.56;5077425;28;20829;-74
2023/03/18 09:13:18;;;;;;;6.53;5.90;;;;;;;6.42;100.00;96119.66;5071843;28;20858;-74
2023/03/18 09:15:45;;;;;;;6.90;6.23;;;;;;;6.72;100.00;96140.91;5084078;28;20485;-74
2023/03/18 09:18:14;;;;;;;8.73;7.20;;;;;;;6.52;100.00;96121.22;5070513;28;20794;-74
2023/03/18 09:20:41;;;;;;;7.80;6.03;;;;;;;6.73;100.00;96132.72;5065497;28;20435;-74
2023/03/18 09:23:09;;;;;;;9.57;6.30;;;;;;;6.82;100.00;96122.25;5070316;28;20456;-74
2023/03/18 09:25:35;;;;;;;8.60;6.77;;;;;;;6.93;100.00;96136.63;5053734;28;20432;-74
2023/03/18 09:28:02;;;;;;;9.77;7.00;;;;;;;6.79;100.00;96120.97;5070239;28;20438;-74
2023/03/18 09:30:29;;;;;;;12.07;6.20;;;;;;;7.15;100.00;96130.47;5071526;28;20428;-74
2023/03/18 09:32:56;;;;;;;11.87;6.87;;;;;;;7.25;100.00;96138.06;5050047;28;20480;-74
2023/03/18 09:35:23;;;;;;;8.50;6.53;;;;;;;7.36;100.00;96146.41;5069925;28;20452;-74
2023/03/18 09:37:50;;;;;;;7.20;5.90;;;;;;;7.32;100.00;96121.78;5071486;28;20427;-74
2023/03/18 09:40:29;;;;;;;9.37;7.07;;;;;;;7.38;100.00;96125.84;5071375;28;20428;-74
2023/03/18 09:43:22;;;;;;;7.70;6.73;;;;;;;7.63;100.00;96140.81;5070048;28;20462;-74
2023/03/18 09:45:55;;;;;;;10.23;6.40;;;;;;;7.87;100.00;96150.06;5058954;28;20519;-74
2023/03/18 09:48:44;;;;;;;9.13;5.90;;;;;;;7.93;100.00;96146.19;5083346;28;20840;-75
2023/03/18 09:51:29;;;;;;;6.97;6.30;;;;;;;8.18;100.00;96145.34;5073850;28;20946;-74
2023/03/18 09:54:29;;;;;;;12.30;6.40;;;;;;;8.46;100.00;96147.63;5086043;28;20554;-74
2023/03/18 09:56:56;;;;;;;9.07;6.80;;;;;;;8.47;100.00;96138.63;5060791;28;20471;-74
2023/03/18 09:59:31;;;;;;;8.70;7.30;;;;;;;8.79;100.00;96150.38;5074929;28;20420;-74
2023/03/18 10:01:59;;;;;;;8.33;7.50;;;;;;;8.65;100.00;96110.31;5073690;28;20458;-74
2023/03/18 10:04:43;;;;;;;7.93;7.13;;;;;;;8.97;100.00;96149.22;5073433;28;20951;-74
2023/03/18 10:07:18;;;;;;;10.33;6.70;;;;;;;8.84;100.00;96124.63;5073558;28;20438;-74
2023/03/18 10:09:58;;;;;;;11.50;7.40;;;;;;;8.86;100.00;96154.09;5092373;28;20797;-75
2023/03/18 10:12:34;;;;;;;12.60;6.83;;;;;;;8.58;100.00;96110.84;5079092;28;20428;-74
2023/03/18 10:15:20;;;;;;;7.60;6.90;;;;;;;8.73;100.00;96115.53;5073504;28;20455;-74
2023/03/18 10:17:56;;;;;;;8.30;6.93;;;;;;;8.71;100.00;96130.91;5073414;28;20424;-75
2023/03/18 10:20:49;;;;;;;8.10;5.93;;;;;;;9.09;100.00;96143.25;5071802;28;20478;-74
2023/03/18 10:23:40;;;;;;;11.67;6.57;;;;;;;9.29;100.00;96150.38;5060226;28;20506;-74
2023/03/18 10:26:28;;;;;;;7.77;6.73;;;;;;;9.22;100.00;96123.00;5094809;28;20864;-75
2023/03/18 10:28:55;;;;;;;8.10;6.77;;;;;;;9.38;100.00;96145.84;5094854;28;20423;-75
2023/03/18 10:31:31;;;;;;;11.50;6.37;;;;;;;9.14;100.00;96153.59;5093473;28;20443;-74
2023/03/18 10:34:05;;;;;;;10.23;7.00;;;;;;;9.29;100.00;96141.72;5058497;28;20467;-74
2023/03/18 10:36:54;;;;;;;6.87;6.13;;;;;;;9.23;100.00;96146.41;5073161;28;20435;-75
2023/03/18 10:39:25;;;;;;;10.33;7.13;;;;;;;9.39;100.00;96144.72;5062412;28;20423;-75
2023/03/18 10:41:54;;;;;;;11.37;6.83;;;;;;;9.36;100.00;96121.66;5072990;28;20459;-75
2023/03/18 10:44:20;;;;;;;7.90;6.83;;;;;;;9.40;100.00;96146.28;5072864;28;20550;-75
2023/03/18 10:47:20;;;;;;;11.50;7.63;;;;;;;9.42;100.00;96135.41;5072765;28;20432;-75
2023/03/18 10:50:14;;;;;;;10.20;7.30;;;;;;;9.46;100.00;96138.94;5062642;28;20527;-75
2023/03/18 10:52:51;;;;;;;11.67;7.50;;;;;;;9.63;100.00;96132.75;5040435;28;20457;-74
2023/03/18 10:55:24;;;;;;;8.97;6.47;;;;;;;9.76;100.00;96126.41;5061335;28;20473;-75
2023/03/18 10:57:50;;;;;;;10.90;7.30;;;;;;;10.21;100.00;96141.50;5072670;28;20436;-75
2023/03/18 11:00:27;;;;;;;7.50;6.17;;;;;;;10.12;100.00;96133.66;5055795;28;20472;-75
2023/03/18 11:02:55;;;;;;;8.00;6.50;;;;;;;9.86;100.00;96104.88;5073379;28;20879;-75
2023/03/18 11:05:22;;;;;;;10.10;6.33;;;;;;;10.15;100.00;96135.66;5072559;28;20440;-75
2023/03/18 11:08:02;;;;;;;7.27;6.17;;;;;;;10.20;100.00;96129.38;5072391;28;20444;-75
2023/03/18 11:10:35;;;;;;;9.87;6.33;;;;;;;10.49;100.00;96131.09;5072600;28;20798;-75
2023/03/18 11:13:02;;;;;;;8.23;6.37;;;;;;;10.43;100.00;96106.00;5073535;28;20522;-75
2023/03/18 11:15:35;;;;;;;13.00;6.50;;;;;;;10.41;100.00;96127.44;5072380;28;20528;-75
2023/03/18 11:18:03;;;;;;;6.40;5.13;;;;;;;10.87;100.00;96128.09;5039810;28;20460;-75
2023/03/18 11:20:46;;;;;;;7.40;6.70;;;;;;;10.78;100.00;96125.56;5068365;28;20971;-75
2023/03/18 11:23:55;;;;;;;7.07;5.77;;;;;;;10.82;100.00;96123.06;5073452;28;20440;-75
2023/03/18 11:26:28;;;;;;;6.63;6.00;;;;;;;10.49;100.00;96100.13;5072201;28;20528;-75
2023/03/18 11:28:57;;;;;;;8.80;6.57;;;;;;;10.86;100.00;96102.75;5072187;28;20478;-75
2023/03/18 11:31:24;;;;;;;6.47;5.73;;;;;;;11.11;100.00;96100.84;5055483;28;20528;-75
2023/03/18 11:33:57;;;;;;;7.70;5.77;;;;;;;11.15;100.00;96083.19;5071820;28;20517;-75
2023/03/18 11:36:26;;;;;;;8.20;6.33;;;;;;;11.71;100.00;96099.06;5055260;28;20959;-75
2023/03/18 11:39:02;;;;;;;6.60;5.90;;;;;;;12.05;100.00;96116.25;5077551;28;20435;-75
2023/03/18 11:41:29;;;;;;;6.83;6.20;;;;;;;11.97;100.00;96086.16;5078325;28;20498;-75
2023/03/18 11:44:17;;;;;;;9.90;6.00;;;;;;;12.07;100.00;96119.34;5080058;28;20854;-75